createdAt,value
2023-03-07T00:02:17.107Z,97618.44
2023-03-07T00:04:47.211Z,97606.91
2023-03-07T00:07:13.949Z,97615.09
2023-03-07T00:09:40.678Z,97605.91
2023-03-07T00:12:08.416Z,97607.22
2023-03-07T00:14:35.054Z,97606.75
2023-03-07T00:17:01.975Z,97606.06
2023-03-07T00:19:28.475Z,97605.91
2023-03-07T00:21:54.972Z,97607.25
2023-03-07T00:24:21.538Z,97600.75
2023-03-07T00:26:48.178Z,97598.22
2023-03-07T00:29:14.672Z,97604.09
2023-03-07T00:31:41.199Z,97613.50
2023-03-07T00:34:07.735Z,97613.50
2023-03-07T00:36:34.188Z,97609.88
2023-03-07T00:39:00.676Z,97608.03
2023-03-07T00:41:28.338Z,97615.34
2023-03-07T00:43:55.891Z,97613.50
2023-03-07T00:46:24.449Z,97613.50
2023-03-07T00:48:51.358Z,97605.97
2023-03-07T00:51:19.444Z,97612.53
2023-03-07T00:53:45.950Z,97613.94
2023-03-07T00:56:15.589Z,97613.94
2023-03-07T00:58:42.364Z,97611.84
2023-03-07T01:01:11.105Z,97611.03
2023-03-07T01:03:37.687Z,97611.63
2023-03-07T01:06:06.614Z,97610.03
2023-03-07T01:08:33.493Z,97605.72
2023-03-07T01:11:02.126Z,97600.03
2023-03-07T01:13:28.658Z,97595.75
2023-03-07T01:15:55.506Z,97590.44
2023-03-07T01:18:22.243Z,97587.44
2023-03-07T01:20:48.729Z,97585.56
2023-03-07T01:23:15.240Z,97576.34
2023-03-07T01:25:43.305Z,97578.03
2023-03-07T01:28:13.895Z,97586.31
2023-03-07T01:30:41.126Z,97588.38
2023-03-07T01:33:09.152Z,97579.00
2023-03-07T01:35:39.757Z,97580.16
2023-03-07T01:38:06.928Z,97577.34
2023-03-07T01:40:33.842Z,97571.34
2023-03-07T01:43:23.374Z,97575.94
2023-03-07T01:45:49.901Z,97580.22
2023-03-07T01:48:17.031Z,97578.97
2023-03-07T01:50:44.567Z,97571.44
2023-03-07T01:53:11.662Z,97568.63
2023-03-07T01:55:39.009Z,97571.00
2023-03-07T01:58:15.076Z,97567.38
2023-03-07T02:00:44.065Z,97562.00
2023-03-07T02:03:10.455Z,97556.81
2023-03-07T02:05:41.139Z,97545.91
2023-03-07T02:08:10.664Z,97546.56
2023-03-07T02:10:38.815Z,97536.66
2023-03-07T02:13:05.451Z,97541.44
2023-03-07T02:15:35.028Z,97535.06
2023-03-07T02:18:02.395Z,97530.13
2023-03-07T02:20:48.674Z,97533.75
2023-03-07T02:23:49.823Z,97533.50
2023-03-07T02:26:21.287Z,97531.00
2023-03-07T02:28:48.694Z,97534.38
2023-03-07T02:31:15.322Z,97534.91
2023-03-07T02:33:41.907Z,97537.50
2023-03-07T02:36:13.117Z,97530.78
2023-03-07T02:38:42.919Z,97531.88
2023-03-07T02:41:11.665Z,97536.09
2023-03-07T02:43:38.335Z,97526.94
2023-03-07T02:46:05.350Z,97528.06
2023-03-07T02:48:31.843Z,97525.25
2023-03-07T02:50:58.297Z,97524.25
2023-03-07T02:53:25.071Z,97523.88
2023-03-07T02:55:51.576Z,97514.00
2023-03-07T02:58:18.073Z,97506.63
2023-03-07T03:00:44.583Z,97505.09
2023-03-07T03:03:12.063Z,97500.50
2023-03-07T03:05:38.573Z,97515.97
2023-03-07T03:08:05.458Z,97522.53
2023-03-07T03:10:32.198Z,97519.47
2023-03-07T03:12:58.689Z,97509.78
2023-03-07T03:15:25.169Z,97515.16
2023-03-07T03:17:53.854Z,97510.16
2023-03-07T03:20:20.320Z,97520.78
2023-03-07T03:22:46.862Z,97507.97
2023-03-07T03:25:14.753Z,97501.56
2023-03-07T03:27:41.898Z,97505.91
2023-03-07T03:30:10.546Z,97494.72
2023-03-07T03:32:38.158Z,97496.16
2023-03-07T03:35:05.662Z,97494.66
2023-03-07T03:37:32.904Z,97492.84
2023-03-07T03:39:59.459Z,97493.19
2023-03-07T03:42:26.019Z,97483.44
2023-03-07T03:44:52.610Z,97484.63
2023-03-07T03:47:19.070Z,97483.44
2023-03-07T03:49:45.520Z,97489.16
2023-03-07T03:52:12.117Z,97483.50
2023-03-07T03:54:38.770Z,97484.19
2023-03-07T03:57:05.281Z,97483.81
2023-03-07T03:59:31.807Z,97473.63
2023-03-07T04:01:58.441Z,97477.84
2023-03-07T04:04:25.006Z,97466.22
2023-03-07T04:06:51.456Z,97461.22
2023-03-07T04:09:17.958Z,97462.28
2023-03-07T04:11:44.452Z,97464.75
2023-03-07T04:14:11.305Z,97460.28
2023-03-07T04:16:37.838Z,97456.53
2023-03-07T04:19:04.346Z,97456.94
2023-03-07T04:21:30.889Z,97449.59
2023-03-07T04:23:58.415Z,97446.00
2023-03-07T04:26:25.048Z,97445.91
2023-03-07T04:28:51.871Z,97435.28
2023-03-07T04:31:24.670Z,97441.41
2023-03-07T04:33:52.304Z,97440.19
2023-03-07T04:36:19.524Z,97437.22
2023-03-07T04:38:47.582Z,97437.22
2023-03-07T04:41:16.255Z,97431.19
2023-03-07T04:43:43.390Z,97428.25
2023-03-07T04:46:11.297Z,97430.09
2023-03-07T04:48:37.840Z,97431.31
2023-03-07T04:51:05.213Z,97428.63
2023-03-07T04:53:31.758Z,97425.91
2023-03-07T04:56:04.911Z,97426.41
2023-03-07T04:58:32.581Z,97425.13
2023-03-07T05:01:01.165Z,97431.19
2023-03-07T05:03:28.256Z,97427.34
2023-03-07T05:05:55.238Z,97426.34
2023-03-07T05:08:23.060Z,97418.56
2023-03-07T05:10:49.617Z,97419.44
2023-03-07T05:13:16.152Z,97421.69
2023-03-07T05:15:42.865Z,97419.47
2023-03-07T05:18:09.433Z,97410.41
2023-03-07T05:20:36.181Z,97407.13
2023-03-07T05:23:02.737Z,97408.03
2023-03-07T05:25:29.306Z,97399.28
2023-03-07T05:27:55.849Z,97402.31
2023-03-07T05:30:22.384Z,97409.09
2023-03-07T05:32:49.052Z,97408.38
2023-03-07T05:35:16.180Z,97402.41
2023-03-07T05:37:42.715Z,97395.56
2023-03-07T05:40:10.606Z,97399.53
2023-03-07T05:42:37.515Z,97389.81
2023-03-07T05:45:05.715Z,97394.81
2023-03-07T05:47:32.563Z,97393.78
2023-03-07T05:49:59.261Z,97381.94
2023-03-07T05:52:26.592Z,97385.22
2023-03-07T05:54:53.101Z,97384.34
2023-03-07T05:57:19.855Z,97381.09
2023-03-07T05:59:46.407Z,97382.41
2023-03-07T06:02:13.195Z,97386.38
2023-03-07T06:04:39.704Z,97384.50
2023-03-07T06:07:06.198Z,97380.72
2023-03-07T06:09:32.706Z,97389.44
2023-03-07T06:11:59.264Z,97384.34
2023-03-07T06:14:28.676Z,97383.09
2023-03-07T06:16:55.241Z,97381.41
2023-03-07T06:19:22.048Z,97385.69
2023-03-07T06:21:48.573Z,97388.25
2023-03-07T06:24:15.098Z,97388.94
2023-03-07T06:26:41.588Z,97384.13
2023-03-07T06:29:08.047Z,97384.06
2023-03-07T06:31:34.834Z,97392.53
2023-03-07T06:34:01.417Z,97392.44
2023-03-07T06:36:27.926Z,97387.50
2023-03-07T06:38:54.616Z,97381.69
2023-03-07T06:41:21.195Z,97388.38
2023-03-07T06:43:52.238Z,97376.09
2023-03-07T06:46:20.504Z,97375.34
2023-03-07T06:48:47.113Z,97377.91
2023-03-07T06:51:13.971Z,97371.75
2023-03-07T06:53:41.278Z,97369.19
2023-03-07T06:56:07.845Z,97374.91
2023-03-07T06:58:34.531Z,97366.72
2023-03-07T07:01:01.079Z,97364.94
2023-03-07T07:03:27.627Z,97370.94
2023-03-07T07:05:54.119Z,97370.56
2023-03-07T07:08:20.712Z,97367.34
2023-03-07T07:10:47.192Z,97370.94
2023-03-07T07:13:13.831Z,97370.75
2023-03-07T07:15:40.409Z,97375.03
2023-03-07T07:18:06.903Z,97361.66
2023-03-07T07:20:33.434Z,97366.81
2023-03-07T07:23:00.114Z,97372.38
2023-03-07T07:25:26.648Z,97369.13
2023-03-07T07:27:53.143Z,97366.00
2023-03-07T07:30:19.603Z,97377.34
2023-03-07T07:32:46.188Z,97367.66
2023-03-07T07:35:12.849Z,97361.91
2023-03-07T07:37:40.327Z,97358.31
2023-03-07T07:40:10.157Z,97361.44
2023-03-07T07:42:36.690Z,97362.16
2023-03-07T07:45:03.663Z,97366.44
2023-03-07T07:47:30.186Z,97360.66
2023-03-07T07:49:56.701Z,97363.78
2023-03-07T07:52:23.162Z,97365.97
2023-03-07T07:54:49.834Z,97365.38
2023-03-07T07:57:16.340Z,97368.72
2023-03-07T07:59:42.808Z,97364.09
2023-03-07T08:02:13.787Z,97373.91
2023-03-07T08:04:40.606Z,97364.69
2023-03-07T08:07:07.976Z,97367.19
2023-03-07T08:09:35.564Z,97356.75
2023-03-07T08:12:02.220Z,97357.31
2023-03-07T08:14:28.689Z,97351.22
2023-03-07T08:16:55.218Z,97342.53
2023-03-07T08:19:21.738Z,97356.75
2023-03-07T08:21:48.257Z,97353.75
2023-03-07T08:24:14.752Z,97357.16
2023-03-07T08:26:41.232Z,97356.72
2023-03-07T08:29:07.786Z,97356.53
2023-03-07T08:31:34.340Z,97344.88
2023-03-07T08:34:01.330Z,97340.94
2023-03-07T08:36:27.860Z,97343.25
2023-03-07T08:38:54.401Z,97340.19
2023-03-07T08:41:23.067Z,97336.91
2023-03-07T08:43:50.059Z,97329.91
2023-03-07T08:46:17.124Z,97331.09
2023-03-07T08:48:43.962Z,97335.66
2023-03-07T08:51:15.030Z,97330.91
2023-03-07T08:53:46.160Z,97336.41
2023-03-07T08:56:15.376Z,97330.78
2023-03-07T08:58:42.044Z,97320.44
2023-03-07T09:01:09.125Z,97324.94
2023-03-07T09:03:36.441Z,97318.16
2023-03-07T09:06:04.162Z,97318.41
2023-03-07T09:08:31.007Z,97317.78
2023-03-07T09:11:03.247Z,97321.47
2023-03-07T09:13:29.779Z,97308.09
2023-03-07T09:15:56.289Z,97315.91
2023-03-07T09:18:23.003Z,97304.78
2023-03-07T09:20:49.513Z,97297.25
2023-03-07T09:23:16.003Z,97295.09
2023-03-07T09:25:44.439Z,97293.59
2023-03-07T09:28:11.019Z,97289.56
2023-03-07T09:30:37.838Z,97284.31
2023-03-07T09:33:04.299Z,97291.44
2023-03-07T09:35:30.971Z,97286.66
2023-03-07T09:37:57.528Z,97282.72
2023-03-07T09:40:27.101Z,97282.53
2023-03-07T09:43:18.601Z,97273.91
2023-03-07T09:46:07.973Z,97262.03
2023-03-07T09:48:59.680Z,97266.78
2023-03-07T09:51:26.977Z,97267.81
2023-03-07T09:54:00.020Z,97262.22
2023-03-07T09:56:43.274Z,97265.16
2023-03-07T09:59:33.933Z,97249.59
2023-03-07T10:02:32.988Z,97242.56
2023-03-07T10:05:08.620Z,97232.97
2023-03-07T10:07:36.049Z,97230.88
2023-03-07T10:10:10.586Z,97235.16
2023-03-07T10:13:01.567Z,97225.09
2023-03-07T10:15:42.555Z,97227.44
2023-03-07T10:18:15.052Z,97223.13
2023-03-07T10:21:04.725Z,97216.44
2023-03-07T10:24:01.932Z,97213.81
2023-03-07T10:26:57.553Z,97213.84
2023-03-07T10:29:27.524Z,97208.91
2023-03-07T10:32:15.061Z,97215.81
2023-03-07T10:34:41.766Z,97212.31
2023-03-07T10:37:19.314Z,97202.81
2023-03-07T10:39:53.022Z,97202.22
2023-03-07T10:42:21.692Z,97201.50
2023-03-07T10:44:50.039Z,97198.44
2023-03-07T10:47:22.436Z,97204.19
2023-03-07T10:49:51.280Z,97201.09
2023-03-07T10:52:46.287Z,97200.53
2023-03-07T10:55:43.437Z,97197.41
2023-03-07T10:58:19.618Z,97195.84
2023-03-07T11:01:03.149Z,97200.31
2023-03-07T11:03:49.623Z,97199.19
2023-03-07T11:07:02.392Z,97198.88
2023-03-07T11:09:34.289Z,97199.09
2023-03-07T11:12:13.523Z,97192.69
2023-03-07T11:15:10.830Z,97190.00
2023-03-07T11:17:49.836Z,97191.47
2023-03-07T11:20:48.406Z,97183.13
2023-03-07T11:23:14.884Z,97173.28
2023-03-07T11:25:41.433Z,97170.53
2023-03-07T11:28:37.178Z,97170.09
2023-03-07T11:31:06.700Z,97164.34
2023-03-07T11:33:59.641Z,97169.09
2023-03-07T11:36:35.594Z,97152.50
2023-03-07T11:39:21.591Z,97149.66
2023-03-07T11:41:55.551Z,97152.81
2023-03-07T11:44:34.823Z,97143.44
2023-03-07T11:47:29.054Z,97154.16
2023-03-07T11:50:15.028Z,97137.63
2023-03-07T11:52:50.354Z,97135.16
2023-03-07T11:55:38.095Z,97136.38
2023-03-07T11:58:46.374Z,97135.28
2023-03-07T12:01:34.517Z,97146.44
2023-03-07T12:04:22.134Z,97129.53
2023-03-07T12:07:20.080Z,97131.91
2023-03-07T12:10:11.290Z,97127.34
2023-03-07T12:12:46.899Z,97133.34
2023-03-07T12:15:32.123Z,97125.72
2023-03-07T12:18:08.949Z,97125.66
2023-03-07T12:20:44.356Z,97123.22
2023-03-07T12:23:36.233Z,97113.59
2023-03-07T12:26:12.363Z,97118.06
2023-03-07T12:29:13.144Z,97120.13
2023-03-07T12:31:47.281Z,97106.38
2023-03-07T12:34:28.537Z,97090.25
2023-03-07T12:37:05.104Z,97087.06
2023-03-07T12:39:49.197Z,97093.78
2023-03-07T12:42:38.845Z,97087.34
2023-03-07T12:45:16.412Z,97087.13
2023-03-07T12:47:51.958Z,97084.84
2023-03-07T12:50:46.001Z,97079.53
2023-03-07T12:53:33.394Z,97062.75
2023-03-07T12:56:22.143Z,97055.72
2023-03-07T12:59:00.637Z,97053.75
2023-03-07T13:01:31.860Z,97059.84
2023-03-07T13:04:13.824Z,97056.34
2023-03-07T13:06:42.215Z,97064.25
2023-03-07T13:09:24.867Z,97048.66
2023-03-07T13:12:09.905Z,97061.03
2023-03-07T13:14:40.430Z,97065.63
2023-03-07T13:17:11.883Z,97073.44
2023-03-07T13:19:39.234Z,97054.69
2023-03-07T13:22:14.865Z,97056.13
2023-03-07T13:24:42.936Z,97055.41
2023-03-07T13:27:15.330Z,97064.78
2023-03-07T13:30:04.044Z,97069.75
2023-03-07T13:32:51.935Z,97057.13
2023-03-07T13:35:24.369Z,97069.75
2023-03-07T13:38:06.202Z,97067.47
2023-03-07T13:40:35.658Z,97063.72
2023-03-07T13:43:04.212Z,97060.38
2023-03-07T13:45:39.972Z,97064.69
2023-03-07T13:48:36.004Z,97068.13
2023-03-07T13:51:09.425Z,97069.22
2023-03-07T13:53:46.245Z,97069.31
2023-03-07T13:56:15.764Z,97072.91
2023-03-07T13:59:04.019Z,97081.03
2023-03-07T14:01:45.869Z,97075.00
2023-03-07T14:04:39.538Z,97072.75
2023-03-07T14:07:21.320Z,97074.03
2023-03-07T14:09:53.569Z,97083.78
2023-03-07T14:13:05.589Z,97086.72
2023-03-07T14:16:03.293Z,97086.97
2023-03-07T14:18:57.258Z,97088.84
2023-03-07T14:21:26.124Z,97098.97
2023-03-07T14:24:01.444Z,97085.31
2023-03-07T14:26:33.457Z,97092.56
2023-03-07T14:29:00.005Z,97102.28
2023-03-07T14:31:36.677Z,97098.84
2023-03-07T14:34:21.564Z,97107.97
2023-03-07T14:37:01.055Z,97106.63
2023-03-07T14:39:43.644Z,97100.22
2023-03-07T14:42:40.174Z,97099.66
2023-03-07T14:45:29.435Z,97104.19
2023-03-07T14:48:19.509Z,97103.66
2023-03-07T14:50:47.030Z,97092.34
2023-03-07T14:53:19.784Z,97095.56
2023-03-07T14:55:48.900Z,97094.19
2023-03-07T14:58:25.702Z,97091.19
2023-03-07T15:01:11.001Z,97094.19
2023-03-07T15:03:45.835Z,97091.81
2023-03-07T15:06:15.513Z,97098.03
2023-03-07T15:08:42.117Z,97091.59
2023-03-07T15:11:14.538Z,97093.22
2023-03-07T15:13:48.213Z,97103.41
2023-03-07T15:16:32.391Z,97099.09
2023-03-07T15:19:19.256Z,97097.47
2023-03-07T15:21:51.842Z,97101.47
2023-03-07T15:24:31.046Z,97094.78
2023-03-07T15:26:59.448Z,97090.16
2023-03-07T15:29:29.816Z,97096.38
2023-03-07T15:31:59.223Z,97096.03
2023-03-07T15:34:30.571Z,97094.88
2023-03-07T15:37:32.545Z,97100.47
2023-03-07T15:40:02.028Z,97100.84
2023-03-07T15:42:29.485Z,97109.47
2023-03-07T15:45:00.181Z,97112.13
2023-03-07T15:47:28.749Z,97106.47
2023-03-07T15:50:04.339Z,97121.09
2023-03-07T15:52:36.865Z,97132.25
2023-03-07T15:55:16.666Z,97138.75
2023-03-07T15:57:48.997Z,97140.47
2023-03-07T16:00:27.850Z,97139.94
2023-03-07T16:03:17.184Z,97144.63
2023-03-07T16:05:43.991Z,97146.00
2023-03-07T16:08:15.583Z,97150.50
2023-03-07T16:11:01.176Z,97152.25
2023-03-07T16:13:40.615Z,97150.19
2023-03-07T16:16:13.465Z,97160.38
2023-03-07T16:18:41.744Z,97158.25
2023-03-07T16:21:13.054Z,97166.16
2023-03-07T16:23:40.094Z,97168.34
2023-03-07T16:26:07.654Z,97156.84
2023-03-07T16:28:34.820Z,97155.53
2023-03-07T16:31:01.411Z,97153.38
2023-03-07T16:33:27.921Z,97161.44
2023-03-07T16:35:54.601Z,97169.81
2023-03-07T16:38:21.472Z,97182.09
2023-03-07T16:40:48.083Z,97189.78
2023-03-07T16:43:36.328Z,97191.06
2023-03-07T16:46:05.986Z,97204.66
2023-03-07T16:48:32.893Z,97206.03
2023-03-07T16:50:59.458Z,97209.66
2023-03-07T16:53:26.718Z,97203.72
2023-03-07T16:55:55.953Z,97209.28
2023-03-07T16:58:27.516Z,97211.94
2023-03-07T17:00:54.355Z,97214.28
2023-03-07T17:03:20.834Z,97219.78
2023-03-07T17:05:47.334Z,97226.75
2023-03-07T17:08:13.791Z,97234.44
2023-03-07T17:10:42.559Z,97243.56
2023-03-07T17:13:17.564Z,97240.78
2023-03-07T17:15:45.481Z,97242.50
2023-03-07T17:18:12.173Z,97245.88
2023-03-07T17:20:38.840Z,97250.72
2023-03-07T17:23:05.328Z,97255.78
2023-03-07T17:25:31.977Z,97267.28
2023-03-07T17:28:02.419Z,97258.66
2023-03-07T17:30:30.702Z,97260.28
2023-03-07T17:32:58.041Z,97265.75
2023-03-07T17:35:24.570Z,97279.94
2023-03-07T17:37:53.054Z,97279.38
2023-03-07T17:40:21.325Z,97288.50
2023-03-07T17:42:51.925Z,97293.34
2023-03-07T17:45:18.828Z,97285.03
2023-03-07T17:47:49.323Z,97300.06
2023-03-07T17:50:15.875Z,97304.41
2023-03-07T17:52:43.146Z,97306.13
2023-03-07T17:55:10.348Z,97308.25
2023-03-07T17:57:36.963Z,97296.56
2023-03-07T18:00:09.276Z,97307.47
2023-03-07T18:02:35.755Z,97309.81
2023-03-07T18:05:02.223Z,97303.31
2023-03-07T18:07:28.777Z,97299.94
2023-03-07T18:10:07.135Z,97306.19
2023-03-07T18:12:34.462Z,97313.81
2023-03-07T18:15:00.956Z,97315.69
2023-03-07T18:17:31.388Z,97312.22
2023-03-07T18:20:10.924Z,97311.81
2023-03-07T18:22:38.284Z,97315.88
2023-03-07T18:25:07.228Z,97314.75
2023-03-07T18:27:33.767Z,97305.66
2023-03-07T18:30:00.286Z,97305.91
2023-03-07T18:32:29.176Z,97308.75
2023-03-07T18:34:55.886Z,97320.25
2023-03-07T18:37:22.747Z,97320.13
2023-03-07T18:39:49.186Z,97326.28
2023-03-07T18:42:15.684Z,97332.03
2023-03-07T18:44:42.250Z,97326.88
2023-03-07T18:47:10.464Z,97326.13
2023-03-07T18:49:38.486Z,97334.97
2023-03-07T18:52:05.006Z,97347.81
2023-03-07T18:54:31.689Z,97351.63
2023-03-07T18:56:58.153Z,97353.00
2023-03-07T18:59:24.607Z,97354.38
2023-03-07T19:01:51.221Z,97355.97
2023-03-07T19:04:18.229Z,97354.38
2023-03-07T19:06:47.480Z,97357.09
2023-03-07T19:09:16.346Z,97358.66
2023-03-07T19:11:43.212Z,97361.09
2023-03-07T19:14:10.031Z,97355.00
2023-03-07T19:16:36.613Z,97360.91
2023-03-07T19:19:03.872Z,97361.41
2023-03-07T19:21:31.180Z,97370.44
2023-03-07T19:23:59.403Z,97383.38
2023-03-07T19:26:26.219Z,97390.75
2023-03-07T19:28:54.835Z,97388.56
2023-03-07T19:31:27.158Z,97391.31
2023-03-07T19:33:54.108Z,97387.91
2023-03-07T19:36:22.834Z,97392.44
2023-03-07T19:38:50.932Z,97403.66
2023-03-07T19:41:21.336Z,97406.81
2023-03-07T19:43:48.164Z,97404.09
2023-03-07T19:46:16.323Z,97408.69
2023-03-07T19:48:44.170Z,97414.84
2023-03-07T19:51:16.645Z,97417.59
2023-03-07T19:53:44.249Z,97409.00
2023-03-07T19:56:18.396Z,97403.63
2023-03-07T19:58:44.959Z,97407.16
2023-03-07T20:01:15.320Z,97405.94
2023-03-07T20:03:42.237Z,97415.72
2023-03-07T20:06:14.337Z,97412.16
2023-03-07T20:08:41.008Z,97422.81
2023-03-07T20:11:27.212Z,97420.16
2023-03-07T20:13:55.965Z,97425.47
2023-03-07T20:16:23.484Z,97417.66
2023-03-07T20:18:51.781Z,97418.63
2023-03-07T20:21:19.720Z,97424.03
2023-03-07T20:23:48.325Z,97421.16
2023-03-07T20:26:21.559Z,97437.31
2023-03-07T20:28:48.655Z,97430.00
2023-03-07T20:31:18.749Z,97443.69
2023-03-07T20:33:46.811Z,97432.69
2023-03-07T20:36:18.736Z,97438.84
2023-03-07T20:38:50.175Z,97427.28
2023-03-07T20:41:19.692Z,97446.50
2023-03-07T20:43:47.854Z,97442.06
2023-03-07T20:46:16.842Z,97433.25
2023-03-07T20:48:44.558Z,97444.41
2023-03-07T20:51:18.474Z,97454.50
2023-03-07T20:53:46.358Z,97452.63
2023-03-07T20:56:12.833Z,97453.00
2023-03-07T20:58:39.633Z,97447.34
2023-03-07T21:01:06.323Z,97446.53
2023-03-07T21:03:33.892Z,97451.22
2023-03-07T21:06:02.476Z,97448.56
2023-03-07T21:08:30.875Z,97454.00
2023-03-07T21:10:59.152Z,97459.78
2023-03-07T21:13:26.145Z,97459.97
2023-03-07T21:15:58.838Z,97456.47
2023-03-07T21:18:26.195Z,97457.97
2023-03-07T21:20:53.026Z,97458.44
2023-03-07T21:23:19.547Z,97467.03
2023-03-07T21:25:46.720Z,97471.13
2023-03-07T21:28:13.726Z,97475.88
2023-03-07T21:30:40.310Z,97472.06
2023-03-07T21:33:07.036Z,97471.28
2023-03-07T21:35:38.720Z,97473.38
2023-03-07T21:38:05.893Z,97467.44
2023-03-07T21:40:32.793Z,97466.41
2023-03-07T21:42:59.330Z,97470.47
2023-03-07T21:45:25.837Z,97460.44
2023-03-07T21:47:54.271Z,97458.97
2023-03-07T21:50:21.014Z,97462.19
2023-03-07T21:52:47.598Z,97464.75
2023-03-07T21:55:14.149Z,97457.13
2023-03-07T21:57:40.678Z,97467.31
2023-03-07T22:00:09.140Z,97461.31
2023-03-07T22:02:38.489Z,97458.72
2023-03-07T22:05:05.439Z,97459.31
2023-03-07T22:07:32.019Z,97455.72
2023-03-07T22:09:58.623Z,97465.09
2023-03-07T22:12:25.131Z,97461.03
2023-03-07T22:14:51.641Z,97464.63
2023-03-07T22:17:18.213Z,97455.81
2023-03-07T22:19:44.695Z,97454.75
2023-03-07T22:22:11.268Z,97450.03
2023-03-07T22:24:37.763Z,97453.03
2023-03-07T22:27:04.341Z,97457.69
2023-03-07T22:29:30.919Z,97452.47
2023-03-07T22:31:57.434Z,97446.09
2023-03-07T22:34:23.981Z,97446.78
2023-03-07T22:36:51.302Z,97450.97
2023-03-07T22:39:17.829Z,97452.25
2023-03-07T22:41:44.287Z,97452.47
2023-03-07T22:44:11.240Z,97441.72
2023-03-07T22:46:37.847Z,97451.22
2023-03-07T22:49:04.358Z,97434.41
2023-03-07T22:51:30.846Z,97431.31
2023-03-07T22:53:57.362Z,97429.69
2023-03-07T22:56:26.788Z,97425.75
2023-03-07T22:58:53.703Z,97435.38
2023-03-07T23:01:22.466Z,97426.31
2023-03-07T23:03:50.622Z,97427.03
2023-03-07T23:06:18.105Z,97434.22
2023-03-07T23:08:49.970Z,97439.66
2023-03-07T23:11:18.081Z,97429.84
2023-03-07T23:13:45.089Z,97440.22
2023-03-07T23:16:14.889Z,97428.91
2023-03-07T23:18:42.585Z,97435.16
2023-03-07T23:21:15.224Z,97442.22
2023-03-07T23:23:41.786Z,97446.84
2023-03-07T23:26:08.341Z,97445.56
2023-03-07T23:28:35.137Z,97447.56
2023-03-07T23:31:01.698Z,97447.78
2023-03-07T23:33:28.269Z,97447.88
2023-03-07T23:35:59.201Z,97461.44
2023-03-07T23:38:25.693Z,97463.63
2023-03-07T23:40:52.257Z,97460.06
2023-03-07T23:43:18.735Z,97464.78
2023-03-07T23:45:45.178Z,97462.13
2023-03-07T23:48:11.709Z,97466.66
2023-03-07T23:50:38.231Z,97462.47
2023-03-07T23:53:04.694Z,97460.06
2023-03-07T23:55:31.213Z,97451.47
2023-03-07T23:57:57.697Z,97442.56
